sensor_id;sensor_type;location;lat;lon;timestamp;temperature;humidity
23755;DHT22;12057;52.042;6.830;2023-02-28T00:04:05;0.40;99.90
23755;DHT22;12057;52.042;6.830;2023-02-28T00:09:06;0.50;99.90
23755;DHT22;12057;52.042;6.830;2023-02-28T00:14:07;0.60;99.90
23755;DHT22;12057;52.042;6.830;2023-02-28T00:19:08;0.60;99.90
23755;DHT22;12057;52.042;6.830;2023-02-28T00:24:08;0.70;99.90
23755;DHT22;12057;52.042;6.830;2023-02-28T00:29:09;0.70;99.90
23755;DHT22;12057;52.042;6.830;2023-02-28T00:34:10;0.80;99.90
23755;DHT22;12057;52.042;6.830;2023-02-28T00:39:11;0.90;99.90
23755;DHT22;12057;52.042;6.830;2023-02-28T00:44:12;0.90;99.90
23755;DHT22;12057;52.042;6.830;2023-02-28T00:49:13;0.90;99.90
23755;DHT22;12057;52.042;6.830;2023-02-28T00:54:13;1.00;99.90
23755;DHT22;12057;52.042;6.830;2023-02-28T00:59:15;1.00;99.90
23755;DHT22;12057;52.042;6.830;2023-02-28T01:04:17;1.10;99.90
23755;DHT22;12057;52.042;6.830;2023-02-28T01:09:17;1.10;99.90
23755;DHT22;12057;52.042;6.830;2023-02-28T01:14:18;1.10;99.90
23755;DHT22;12057;52.042;6.830;2023-02-28T01:19:19;1.10;99.90
23755;DHT22;12057;52.042;6.830;2023-02-28T01:24:20;1.20;99.90
23755;DHT22;12057;52.042;6.830;2023-02-28T01:29:21;1.20;99.90
23755;DHT22;12057;52.042;6.830;2023-02-28T01:34:21;1.20;99.90
23755;DHT22;12057;52.042;6.830;2023-02-28T01:39:22;1.20;99.90
23755;DHT22;12057;52.042;6.830;2023-02-28T01:49:55;1.30;99.90
23755;DHT22;12057;52.042;6.830;2023-02-28T01:54:59;1.30;99.90
23755;DHT22;12057;52.042;6.830;2023-02-28T02:00:07;1.40;99.90
23755;DHT22;12057;52.042;6.830;2023-02-28T02:05:23;1.40;99.90
23755;DHT22;12057;52.042;6.830;2023-02-28T02:10:35;1.40;99.90
23755;DHT22;12057;52.042;6.830;2023-02-28T02:37:24;1.40;99.90
23755;DHT22;12057;52.042;6.830;2023-02-28T02:42:54;1.40;99.90
23755;DHT22;12057;52.042;6.830;2023-02-28T02:48:00;1.40;99.90
23755;DHT22;12057;52.042;6.830;2023-02-28T02:53:03;1.40;99.90
23755;DHT22;12057;52.042;6.830;2023-02-28T02:58:10;1.40;99.90
23755;DHT22;12057;52.042;6.830;2023-02-28T03:03:14;1.40;99.90
23755;DHT22;12057;52.042;6.830;2023-02-28T03:08:18;1.40;99.90
23755;DHT22;12057;52.042;6.830;2023-02-28T03:19:31;1.30;99.90
23755;DHT22;12057;52.042;6.830;2023-02-28T03:25:01;1.30;99.90
23755;DHT22;12057;52.042;6.830;2023-02-28T03:35:31;1.30;99.90
23755;DHT22;12057;52.042;6.830;2023-02-28T03:40:34;1.30;99.90
23755;DHT22;12057;52.042;6.830;2023-02-28T03:45:39;1.30;99.90
23755;DHT22;12057;52.042;6.830;2023-02-28T03:50:44;1.30;99.90
23755;DHT22;12057;52.042;6.830;2023-02-28T03:55:49;1.40;99.90
23755;DHT22;12057;52.042;6.830;2023-02-28T04:01:07;1.40;99.90
23755;DHT22;12057;52.042;6.830;2023-02-28T04:06:16;1.40;99.90
23755;DHT22;12057;52.042;6.830;2023-02-28T04:16:38;1.40;99.90
23755;DHT22;12057;52.042;6.830;2023-02-28T04:21:50;1.40;99.90
23755;DHT22;12057;52.042;6.830;2023-02-28T04:26:53;1.40;99.90
23755;DHT22;12057;52.042;6.830;2023-02-28T04:31:55;1.50;99.90
23755;DHT22;12057;52.042;6.830;2023-02-28T04:37:00;1.50;99.90
23755;DHT22;12057;52.042;6.830;2023-02-28T04:42:01;1.40;99.90
23755;DHT22;12057;52.042;6.830;2023-02-28T04:47:02;1.50;99.90
23755;DHT22;12057;52.042;6.830;2023-02-28T04:52:03;1.40;99.90
23755;DHT22;12057;52.042;6.830;2023-02-28T04:57:04;1.40;99.90
23755;DHT22;12057;52.042;6.830;2023-02-28T05:02:05;1.40;99.90
23755;DHT22;12057;52.042;6.830;2023-02-28T05:07:07;1.40;99.90
23755;DHT22;12057;52.042;6.830;2023-02-28T05:12:09;1.40;99.90
23755;DHT22;12057;52.042;6.830;2023-02-28T05:17:10;1.30;99.90
23755;DHT22;12057;52.042;6.830;2023-02-28T05:22:15;1.30;99.90
23755;DHT22;12057;52.042;6.830;2023-02-28T05:27:17;1.20;99.90
23755;DHT22;12057;52.042;6.830;2023-02-28T05:32:18;1.10;99.90
23755;DHT22;12057;52.042;6.830;2023-02-28T05:37:18;1.10;99.90
23755;DHT22;12057;52.042;6.830;2023-02-28T05:42:19;1.10;99.90
23755;DHT22;12057;52.042;6.830;2023-02-28T05:47:20;1.00;99.90
23755;DHT22;12057;52.042;6.830;2023-02-28T05:52:21;0.90;99.90
23755;DHT22;12057;52.042;6.830;2023-02-28T05:57:22;0.90;99.90
23755;DHT22;12057;52.042;6.830;2023-02-28T06:02:23;0.80;99.90
23755;DHT22;12057;52.042;6.830;2023-02-28T06:07:24;0.80;99.90
23755;DHT22;12057;52.042;6.830;2023-02-28T06:12:25;0.80;99.90
23755;DHT22;12057;52.042;6.830;2023-02-28T06:17:25;0.80;99.90
23755;DHT22;12057;52.042;6.830;2023-02-28T06:22:26;0.70;99.90
23755;DHT22;12057;52.042;6.830;2023-02-28T06:27:27;0.60;99.90
23755;DHT22;12057;52.042;6.830;2023-02-28T06:32:28;0.60;99.90
23755;DHT22;12057;52.042;6.830;2023-02-28T06:37:30;0.60;99.90
23755;DHT22;12057;52.042;6.830;2023-02-28T06:42:31;0.50;99.90
23755;DHT22;12057;52.042;6.830;2023-02-28T06:47:32;0.50;99.90
23755;DHT22;12057;52.042;6.830;2023-02-28T06:52:33;0.50;99.90
23755;DHT22;12057;52.042;6.830;2023-02-28T06:57:36;0.40;99.90
23755;DHT22;12057;52.042;6.830;2023-02-28T07:02:38;0.40;99.90
23755;DHT22;12057;52.042;6.830;2023-02-28T07:07:39;0.40;99.90
23755;DHT22;12057;52.042;6.830;2023-02-28T07:12:44;0.40;99.90
23755;DHT22;12057;52.042;6.830;2023-02-28T07:17:44;0.40;99.90
23755;DHT22;12057;52.042;6.830;2023-02-28T07:22:45;0.50;99.90
23755;DHT22;12057;52.042;6.830;2023-02-28T07:27:46;0.50;99.90
23755;DHT22;12057;52.042;6.830;2023-02-28T07:32:47;0.70;99.90
23755;DHT22;12057;52.042;6.830;2023-02-28T07:37:47;0.90;99.90
23755;DHT22;12057;52.042;6.830;2023-02-28T07:42:48;1.10;99.90
23755;DHT22;12057;52.042;6.830;2023-02-28T07:47:49;1.30;99.90
23755;DHT22;12057;52.042;6.830;2023-02-28T07:52:51;1.40;99.90
23755;DHT22;12057;52.042;6.830;2023-02-28T07:57:52;1.70;99.90
23755;DHT22;12057;52.042;6.830;2023-02-28T08:02:53;1.90;99.90
23755;DHT22;12057;52.042;6.830;2023-02-28T08:07:54;2.10;99.90
23755;DHT22;12057;52.042;6.830;2023-02-28T08:12:55;2.40;99.90
23755;DHT22;12057;52.042;6.830;2023-02-28T08:17:56;2.70;99.90
23755;DHT22;12057;52.042;6.830;2023-02-28T08:22:57;3.00;99.90
23755;DHT22;12057;52.042;6.830;2023-02-28T08:27:58;3.20;99.90
23755;DHT22;12057;52.042;6.830;2023-02-28T08:32:58;3.50;99.90
23755;DHT22;12057;52.042;6.830;2023-02-28T08:38:01;3.70;99.90
23755;DHT22;12057;52.042;6.830;2023-02-28T08:43:01;3.90;99.90
23755;DHT22;12057;52.042;6.830;2023-02-28T08:48:02;4.10;99.90
23755;DHT22;12057;52.042;6.830;2023-02-28T08:53:03;4.30;99.90
23755;DHT22;12057;52.042;6.830;2023-02-28T08:58:04;4.50;99.90
23755;DHT22;12057;52.042;6.830;2023-02-28T09:03:05;4.70;99.90
23755;DHT22;12057;52.042;6.830;2023-02-28T09:08:05;4.80;99.90
23755;DHT22;12057;52.042;6.830;2023-02-28T09:13:06;5.10;99.90
23755;DHT22;12057;52.042;6.830;2023-02-28T09:18:10;5.20;99.90
23755;DHT22;12057;52.042;6.830;2023-02-28T09:23:12;5.20;99.90
23755;DHT22;12057;52.042;6.830;2023-02-28T09:28:13;5.50;99.90
23755;DHT22;12057;52.042;6.830;2023-02-28T09:33:17;5.70;99.90
23755;DHT22;12057;52.042;6.830;2023-02-28T09:38:18;5.80;99.90
23755;DHT22;12057;52.042;6.830;2023-02-28T09:43:22;6.00;99.90
23755;DHT22;12057;52.042;6.830;2023-02-28T09:48:29;6.10;99.90
23755;DHT22;12057;52.042;6.830;2023-02-28T09:53:34;6.20;99.00
23755;DHT22;12057;52.042;6.830;2023-02-28T10:04:44;6.20;95.20
23755;DHT22;12057;52.042;6.830;2023-02-28T10:14:58;6.70;99.90
23755;DHT22;12057;52.042;6.830;2023-02-28T10:20:04;6.40;91.90
23755;DHT22;12057;52.042;6.830;2023-02-28T10:25:44;6.80;92.70
23755;DHT22;12057;52.042;6.830;2023-02-28T10:30:42;6.60;92.30
23755;DHT22;12057;52.042;6.830;2023-02-28T10:35:44;6.90;93.50
23755;DHT22;12057;52.042;6.830;2023-02-28T10:40:45;7.10;92.60
23755;DHT22;12057;52.042;6.830;2023-02-28T10:46:16;6.80;90.60
23755;DHT22;12057;52.042;6.830;2023-02-28T10:51:37;6.90;92.00
23755;DHT22;12057;52.042;6.830;2023-02-28T10:56:38;7.10;90.20
23755;DHT22;12057;52.042;6.830;2023-02-28T11:01:41;7.30;91.00
23755;DHT22;12057;52.042;6.830;2023-02-28T11:06:43;7.50;90.10
23755;DHT22;12057;52.042;6.830;2023-02-28T11:11:46;7.20;86.10
23755;DHT22;12057;52.042;6.830;2023-02-28T11:16:48;6.90;84.70
23755;DHT22;12057;52.042;6.830;2023-02-28T11:21:58;7.00;89.80
23755;DHT22;12057;52.042;6.830;2023-02-28T11:26:59;7.20;88.40
23755;DHT22;12057;52.042;6.830;2023-02-28T11:32:21;7.30;88.40
23755;DHT22;12057;52.042;6.830;2023-02-28T11:37:22;7.30;85.70
23755;DHT22;12057;52.042;6.830;2023-02-28T11:47:57;7.50;84.30
23755;DHT22;12057;52.042;6.830;2023-02-28T12:25:42;7.70;81.90
23755;DHT22;12057;52.042;6.830;2023-02-28T12:36:17;7.90;83.00
23755;DHT22;12057;52.042;6.830;2023-02-28T12:41:26;7.80;83.80
23755;DHT22;12057;52.042;6.830;2023-02-28T12:46:42;8.30;85.50
23755;DHT22;12057;52.042;6.830;2023-02-28T12:51:45;8.00;79.60
23755;DHT22;12057;52.042;6.830;2023-02-28T13:13:03;8.20;81.20
23755;DHT22;12057;52.042;6.830;2023-02-28T13:18:04;8.20;78.40
23755;DHT22;12057;52.042;6.830;2023-02-28T13:29:01;8.20;78.80
23755;DHT22;12057;52.042;6.830;2023-02-28T13:34:13;8.30;79.50
23755;DHT22;12057;52.042;6.830;2023-02-28T13:50:32;8.30;77.20
23755;DHT22;12057;52.042;6.830;2023-02-28T14:06:37;9.10;74.20
23755;DHT22;12057;52.042;6.830;2023-02-28T14:11:41;8.80;75.50
23755;DHT22;12057;52.042;6.830;2023-02-28T14:16:46;9.20;75.40
23755;DHT22;12057;52.042;6.830;2023-02-28T14:22:04;8.80;73.40
23755;DHT22;12057;52.042;6.830;2023-02-28T14:37:42;8.60;77.60
23755;DHT22;12057;52.042;6.830;2023-02-28T14:42:58;8.00;77.50
23755;DHT22;12057;52.042;6.830;2023-02-28T14:48:01;7.80;78.10
23755;DHT22;12057;52.042;6.830;2023-02-28T14:53:03;7.90;77.80
23755;DHT22;12057;52.042;6.830;2023-02-28T14:58:22;7.80;78.20
23755;DHT22;12057;52.042;6.830;2023-02-28T15:08:32;7.40;78.10
23755;DHT22;12057;52.042;6.830;2023-02-28T15:13:43;7.20;79.90
23755;DHT22;12057;52.042;6.830;2023-02-28T15:29:20;6.80;80.70
23755;DHT22;12057;52.042;6.830;2023-02-28T15:39:48;6.70;83.50
23755;DHT22;12057;52.042;6.830;2023-02-28T15:44:48;6.50;83.40
23755;DHT22;12057;52.042;6.830;2023-02-28T15:49:52;6.40;84.60
23755;DHT22;12057;52.042;6.830;2023-02-28T15:54:54;6.20;84.10
23755;DHT22;12057;52.042;6.830;2023-02-28T16:00:00;6.20;85.30
23755;DHT22;12057;52.042;6.830;2023-02-28T16:10:12;5.90;85.70
23755;DHT22;12057;52.042;6.830;2023-02-28T16:15:18;5.90;87.10
23755;DHT22;12057;52.042;6.830;2023-02-28T16:20:26;5.80;87.70
23755;DHT22;12057;52.042;6.830;2023-02-28T16:25:35;5.80;88.40
23755;DHT22;12057;52.042;6.830;2023-02-28T16:30:36;5.80;91.20
23755;DHT22;12057;52.042;6.830;2023-02-28T16:35:37;5.80;92.40
23755;DHT22;12057;52.042;6.830;2023-02-28T17:51:00;4.30;99.90
23755;DHT22;12057;52.042;6.830;2023-02-28T17:56:00;4.10;99.90
23755;DHT22;12057;52.042;6.830;2023-02-28T18:01:01;4.00;99.90
23755;DHT22;12057;52.042;6.830;2023-02-28T18:06:03;3.80;99.90
23755;DHT22;12057;52.042;6.830;2023-02-28T18:11:04;3.60;99.90
23755;DHT22;12057;52.042;6.830;2023-02-28T18:16:05;3.40;99.90
23755;DHT22;12057;52.042;6.830;2023-02-28T18:21:08;3.40;99.90
23755;DHT22;12057;52.042;6.830;2023-02-28T18:26:09;3.20;99.90
23755;DHT22;12057;52.042;6.830;2023-02-28T18:31:16;3.10;99.90
23755;DHT22;12057;52.042;6.830;2023-02-28T18:36:19;3.00;99.90
23755;DHT22;12057;52.042;6.830;2023-02-28T18:41:21;3.00;99.90
23755;DHT22;12057;52.042;6.830;2023-02-28T18:46:22;3.10;99.90
23755;DHT22;12057;52.042;6.830;2023-02-28T18:51:25;3.20;99.90
23755;DHT22;12057;52.042;6.830;2023-02-28T18:56:26;3.20;99.90
23755;DHT22;12057;52.042;6.830;2023-02-28T19:01:28;3.10;99.90
23755;DHT22;12057;52.042;6.830;2023-02-28T19:06:32;3.00;99.90
23755;DHT22;12057;52.042;6.830;2023-02-28T19:11:33;3.00;99.90
23755;DHT22;12057;52.042;6.830;2023-02-28T19:16:34;2.90;99.90
23755;DHT22;12057;52.042;6.830;2023-02-28T19:21:36;2.90;99.90
23755;DHT22;12057;52.042;6.830;2023-02-28T19:26:40;2.80;99.90
23755;DHT22;12057;52.042;6.830;2023-02-28T19:31:41;2.80;99.90
23755;DHT22;12057;52.042;6.830;2023-02-28T19:36:42;2.60;99.90
23755;DHT22;12057;52.042;6.830;2023-02-28T19:41:43;2.40;99.90
23755;DHT22;12057;52.042;6.830;2023-02-28T19:46:43;2.30;99.90
23755;DHT22;12057;52.042;6.830;2023-02-28T19:51:44;2.10;99.90
23755;DHT22;12057;52.042;6.830;2023-02-28T19:56:45;2.00;99.90
23755;DHT22;12057;52.042;6.830;2023-02-28T20:01:46;1.90;99.90
23755;DHT22;12057;52.042;6.830;2023-02-28T20:06:48;1.90;99.90
23755;DHT22;12057;52.042;6.830;2023-02-28T20:11:49;1.70;99.90
23755;DHT22;12057;52.042;6.830;2023-02-28T20:16:50;1.50;99.90
23755;DHT22;12057;52.042;6.830;2023-02-28T20:21:51;1.30;99.90
23755;DHT22;12057;52.042;6.830;2023-02-28T20:26:52;1.20;99.90
23755;DHT22;12057;52.042;6.830;2023-02-28T20:31:53;1.10;99.90
23755;DHT22;12057;52.042;6.830;2023-02-28T20:36:54;1.00;99.90
23755;DHT22;12057;52.042;6.830;2023-02-28T20:41:56;0.90;99.90
23755;DHT22;12057;52.042;6.830;2023-02-28T20:46:56;0.90;99.90
23755;DHT22;12057;52.042;6.830;2023-02-28T20:51:57;0.90;99.90
23755;DHT22;12057;52.042;6.830;2023-02-28T20:56:58;0.80;99.90
23755;DHT22;12057;52.042;6.830;2023-02-28T21:01:59;0.80;99.90
23755;DHT22;12057;52.042;6.830;2023-02-28T21:06:59;0.70;99.90
23755;DHT22;12057;52.042;6.830;2023-02-28T21:12:00;0.60;99.90
23755;DHT22;12057;52.042;6.830;2023-02-28T21:17:01;0.60;99.90
23755;DHT22;12057;52.042;6.830;2023-02-28T21:22:02;0.70;99.90
23755;DHT22;12057;52.042;6.830;2023-02-28T21:27:02;0.60;99.90
23755;DHT22;12057;52.042;6.830;2023-02-28T21:32:03;0.60;99.90
23755;DHT22;12057;52.042;6.830;2023-02-28T21:37:05;0.70;99.90
23755;DHT22;12057;52.042;6.830;2023-02-28T21:42:06;0.60;99.90
23755;DHT22;12057;52.042;6.830;2023-02-28T21:47:07;0.50;99.90
23755;DHT22;12057;52.042;6.830;2023-02-28T21:52:11;0.50;99.90
23755;DHT22;12057;52.042;6.830;2023-02-28T21:57:11;0.50;99.90
23755;DHT22;12057;52.042;6.830;2023-02-28T22:02:13;0.40;99.90
23755;DHT22;12057;52.042;6.830;2023-02-28T22:07:14;0.40;99.90
23755;DHT22;12057;52.042;6.830;2023-02-28T22:12:17;0.40;99.90
23755;DHT22;12057;52.042;6.830;2023-02-28T22:17:18;0.30;99.90
23755;DHT22;12057;52.042;6.830;2023-02-28T22:22:19;0.30;99.90
23755;DHT22;12057;52.042;6.830;2023-02-28T22:27:20;0.30;99.90
23755;DHT22;12057;52.042;6.830;2023-02-28T22:32:21;0.20;99.90
23755;DHT22;12057;52.042;6.830;2023-02-28T22:37:22;0.20;99.90
23755;DHT22;12057;52.042;6.830;2023-02-28T22:42:22;0.10;99.90
23755;DHT22;12057;52.042;6.830;2023-02-28T22:47:23;0.10;99.90
23755;DHT22;12057;52.042;6.830;2023-02-28T22:52:25;-0.10;99.90
23755;DHT22;12057;52.042;6.830;2023-02-28T22:57:27;-0.20;99.90
23755;DHT22;12057;52.042;6.830;2023-02-28T23:02:28;-0.10;99.90
23755;DHT22;12057;52.042;6.830;2023-02-28T23:07:29;-0.20;99.90
23755;DHT22;12057;52.042;6.830;2023-02-28T23:12:29;-0.20;99.90
23755;DHT22;12057;52.042;6.830;2023-02-28T23:17:30;-0.30;99.90
23755;DHT22;12057;52.042;6.830;2023-02-28T23:22:31;-0.30;99.90
23755;DHT22;12057;52.042;6.830;2023-02-28T23:27:32;-0.30;99.90
23755;DHT22;12057;52.042;6.830;2023-02-28T23:32:33;-0.30;99.90
23755;DHT22;12057;52.042;6.830;2023-02-28T23:37:34;-0.30;99.90
23755;DHT22;12057;52.042;6.830;2023-02-28T23:42:35;-0.40;99.90
23755;DHT22;12057;52.042;6.830;2023-02-28T23:47:36;-0.40;99.90
23755;DHT22;12057;52.042;6.830;2023-02-28T23:52:37;-0.50;99.90
23755;DHT22;12057;52.042;6.830;2023-02-28T23:57:37;-0.50;99.90
